Terminal Aerodrome Forecast
Issued by NWS

Home | Current Version | Previous Version | Text Only | Print | Product List | Glossary On
Versions: 1 2 3 4 5 6 7 8 9 10 11 12 13 14 15 16
939
FTUS43 KJKL 231722
TAFSME
TAF
KSME 231722Z 2318/2418 21013G24KT P6SM VCTS SCT028 BKN040CB
     FM232000 21013G22KT 4SM -TSRA OVC025CB
     FM240100 23010KT 3SM -SHRA VCTS OVC015CB
     FM240600 27004KT 2SM BR OVC010
     FM241300 30004KT P6SM SCT025=

USA.gov is the U.S. government's official web portal to all federal, state and local government web resources and services.